Time;durP1;ratioP1;P1;durP2;ratioP2;P2;SDS_P1;SDS_P2;PMS_P1;PMS_P2;Temp;Humidity;BMP_temperature;BMP_pressure;BME280_temperature;BME280_humidity;BME280_pressure;Samples;Min_cycle;Max_cycle;Signal;HPM_P1;HPM_P2
2023/07/27 00:00:25;;;;;;;7.00;2.10;;;15.00;99.90;;;;;;4997528;28;20026;-69
2023/07/27 00:02:51;;;;;;;4.55;2.20;;;15.00;99.90;;;;;;4997203;28;20121;-69
2023/07/27 00:05:16;;;;;;;2.42;1.98;;;15.00;99.90;;;;;;4996993;28;20117;-69
2023/07/27 00:07:42;;;;;;;2.83;1.90;;;15.10;99.90;;;;;;4997610;28;20073;-69
2023/07/27 00:10:07;;;;;;;5.65;2.13;;;15.10;99.90;;;;;;4998104;28;20018;-69
2023/07/27 00:12:33;;;;;;;4.82;2.22;;;15.10;99.90;;;;;;4997030;28;20069;-69
2023/07/27 00:14:58;;;;;;;7.63;2.80;;;15.20;99.90;;;;;;4997031;28;20049;-69
2023/07/27 00:17:24;;;;;;;3.20;2.15;;;15.20;99.90;;;;;;4996952;28;20034;-69
2023/07/27 00:19:49;;;;;;;5.50;3.33;;;15.20;99.90;;;;;;4997826;28;20064;-69
2023/07/27 00:22:15;;;;;;;3.42;2.38;;;15.20;99.90;;;;;;4997163;28;20030;-69
2023/07/27 00:24:40;;;;;;;4.65;2.38;;;15.20;99.90;;;;;;4996919;28;20022;-69
2023/07/27 00:27:06;;;;;;;6.85;2.35;;;15.20;99.90;;;;;;4996895;28;20027;-69
2023/07/27 00:29:31;;;;;;;4.00;2.28;;;15.10;99.90;;;;;;4997001;28;20085;-69
2023/07/27 00:31:57;;;;;;;3.30;2.30;;;15.10;99.90;;;;;;4997499;28;20029;-69
2023/07/27 00:34:22;;;;;;;4.68;2.15;;;15.10;99.90;;;;;;4996839;28;20026;-69
2023/07/27 00:36:48;;;;;;;5.18;2.65;;;15.10;99.90;;;;;;4997613;28;20033;-69
2023/07/27 00:39:13;;;;;;;3.95;2.28;;;15.10;99.90;;;;;;4997630;28;20050;-69
2023/07/27 00:41:40;;;;;;;4.45;1.90;;;15.10;99.90;;;;;;4996655;28;20033;-69
2023/07/27 00:44:06;;;;;;;4.25;2.22;;;15.10;99.90;;;;;;4997040;28;20029;-69
2023/07/27 00:46:32;;;;;;;4.32;2.25;;;15.20;99.90;;;;;;4997524;28;20026;-69
2023/07/27 00:48:57;;;;;;;2.92;1.90;;;15.20;99.90;;;;;;4996652;28;20037;-69
2023/07/27 00:51:23;;;;;;;5.13;1.98;;;15.20;99.90;;;;;;4997519;28;20121;-69
2023/07/27 00:53:49;;;;;;;2.65;2.08;;;15.20;99.90;;;;;;4996306;28;20022;-69
2023/07/27 00:56:15;;;;;;;3.90;1.88;;;15.20;99.90;;;;;;4997316;28;20070;-69
2023/07/27 00:58:42;;;;;;;3.35;2.00;;;15.10;99.90;;;;;;4997014;28;20183;-69
2023/07/27 01:01:09;;;;;;;3.38;1.88;;;15.10;99.90;;;;;;4996429;28;20053;-69
2023/07/27 01:03:35;;;;;;;3.60;2.45;;;15.00;99.90;;;;;;4997385;28;20022;-69
2023/07/27 01:06:01;;;;;;;5.18;2.15;;;14.90;99.90;;;;;;4997831;28;20030;-69
2023/07/27 01:08:27;;;;;;;4.20;2.38;;;14.90;99.90;;;;;;4997166;28;20026;-69
2023/07/27 01:11:16;;;;;;;4.60;2.25;;;14.90;99.90;;;;;;4996456;28;20106;-69
2023/07/27 01:13:51;;;;;;;7.97;2.28;;;14.90;99.90;;;;;;4996410;28;20041;-69
2023/07/27 01:16:38;;;;;;;3.60;2.30;;;14.90;99.90;;;;;;4996634;28;20049;-69
2023/07/27 01:19:26;;;;;;;3.80;1.83;;;14.90;99.90;;;;;;4996329;28;20030;-69
2023/07/27 01:22:07;;;;;;;4.03;2.15;;;14.90;99.90;;;;;;4996355;28;20026;-69
2023/07/27 01:24:54;;;;;;;8.88;2.55;;;15.00;99.90;;;;;;4997083;28;20026;-69
2023/07/27 01:27:41;;;;;;;5.50;2.60;;;15.10;99.90;;;;;;4996749;28;20076;-69
2023/07/27 01:30:15;;;;;;;3.97;2.10;;;15.10;99.90;;;;;;4996822;28;20026;-69
2023/07/27 01:32:42;;;;;;;3.47;2.17;;;15.20;99.90;;;;;;4996074;28;20027;-69
2023/07/27 01:35:12;;;;;;;3.35;2.00;;;15.10;99.90;;;;;;4996630;28;20027;-69
2023/07/27 01:37:41;;;;;;;2.95;1.80;;;15.00;99.90;;;;;;4997633;28;20033;-69
2023/07/27 01:40:09;;;;;;;3.25;2.40;;;15.00;99.90;;;;;;4996992;28;20022;-69
2023/07/27 01:42:35;;;;;;;5.10;2.10;;;15.00;99.90;;;;;;4996864;28;20105;-69
2023/07/27 01:45:02;;;;;;;3.38;2.20;;;15.00;99.90;;;;;;4996070;28;20033;-69
2023/07/27 01:47:29;;;;;;;7.68;2.00;;;15.00;99.90;;;;;;4996532;28;20033;-69
2023/07/27 01:49:55;;;;;;;3.78;2.20;;;15.00;99.90;;;;;;4996386;28;20113;-69
2023/07/27 01:52:23;;;;;;;9.52;2.65;;;15.10;99.90;;;;;;4996172;28;20033;-69
2023/07/27 01:54:50;;;;;;;3.22;1.98;;;15.10;99.90;;;;;;4996263;28;20030;-69
2023/07/27 01:57:17;;;;;;;3.63;2.20;;;15.10;99.90;;;;;;4998040;28;20112;-69
2023/07/27 01:59:44;;;;;;;3.42;2.13;;;15.10;99.90;;;;;;4999449;28;20026;-69
2023/07/27 02:02:11;;;;;;;3.38;2.08;;;15.10;99.90;;;;;;5000239;28;20031;-69
2023/07/27 02:04:37;;;;;;;6.40;2.60;;;15.10;99.90;;;;;;4999497;28;20026;-69
2023/07/27 02:07:02;;;;;;;4.90;2.15;;;15.20;99.90;;;;;;4999180;28;20027;-69
2023/07/27 02:09:28;;;;;;;3.40;1.92;;;15.10;99.90;;;;;;4999555;28;20027;-69
2023/07/27 02:12:01;;;;;;;4.95;2.60;;;15.10;99.90;;;;;;4999231;28;20051;-69
2023/07/27 02:14:30;;;;;;;3.53;2.55;;;15.00;99.90;;;;;;4999398;28;20037;-69
2023/07/27 02:17:12;;;;;;;3.78;2.35;;;15.00;99.90;;;;;;4999354;28;20026;-69
2023/07/27 02:19:39;;;;;;;4.78;2.53;;;15.00;99.90;;;;;;4999974;28;20033;-69
2023/07/27 02:22:08;;;;;;;5.75;2.90;;;14.90;99.90;;;;;;5000065;28;20030;-69
2023/07/27 02:24:34;;;;;;;4.50;2.15;;;14.90;99.90;;;;;;4999165;28;20027;-69
2023/07/27 02:27:00;;;;;;;8.05;2.55;;;15.00;99.90;;;;;;4998870;28;20121;-69
2023/07/27 02:29:25;;;;;;;6.05;2.28;;;15.10;99.90;;;;;;4999409;28;20058;-69
2023/07/27 02:31:51;;;;;;;5.50;2.50;;;15.10;99.90;;;;;;4998989;28;20029;-69
2023/07/27 02:34:17;;;;;;;3.70;2.40;;;15.10;99.90;;;;;;4999180;28;20026;-69
2023/07/27 02:36:43;;;;;;;6.60;2.70;;;15.10;99.90;;;;;;4998868;28;20030;-69
2023/07/27 02:39:08;;;;;;;7.80;3.10;;;15.10;99.90;;;;;;4999965;28;20030;-69
2023/07/27 02:41:34;;;;;;;3.25;2.38;;;15.20;99.90;;;;;;4999690;28;20030;-69
2023/07/27 02:43:59;;;;;;;3.75;2.35;;;15.20;99.90;;;;;;4998568;28;20132;-69
2023/07/27 02:46:25;;;;;;;2.72;2.20;;;15.20;99.90;;;;;;4998890;28;20092;-69
2023/07/27 02:48:53;;;;;;;3.78;2.50;;;15.00;99.90;;;;;;4999562;28;20026;-69
2023/07/27 02:51:18;;;;;;;2.40;2.20;;;15.00;99.90;;;;;;4999427;28;20022;-69
2023/07/27 02:53:44;;;;;;;4.80;2.80;;;15.10;99.90;;;;;;4999596;28;20022;-69
2023/07/27 02:56:09;;;;;;;4.85;2.90;;;15.10;99.90;;;;;;4999569;28;20133;-69
2023/07/27 02:58:35;;;;;;;6.03;2.70;;;15.00;99.90;;;;;;4998415;28;20030;-69
2023/07/27 03:01:02;;;;;;;6.53;2.42;;;15.00;99.90;;;;;;4998541;28;20065;-69
2023/07/27 03:03:28;;;;;;;4.40;2.83;;;15.10;99.90;;;;;;4999273;28;20041;-69
2023/07/27 03:06:01;;;;;;;7.85;2.30;;;15.20;99.90;;;;;;4998615;28;20026;-69
2023/07/27 03:08:28;;;;;;;4.50;2.83;;;15.20;99.90;;;;;;4997465;28;20026;-69
2023/07/27 03:10:54;;;;;;;4.00;2.60;;;15.30;99.90;;;;;;4998667;28;20022;-69
2023/07/27 03:13:20;;;;;;;4.85;2.67;;;15.20;99.90;;;;;;4997993;28;20030;-69
2023/07/27 03:15:46;;;;;;;6.47;2.53;;;15.30;99.90;;;;;;4998680;28;20117;-69
2023/07/27 03:18:11;;;;;;;5.15;2.80;;;15.20;99.90;;;;;;4998983;28;20022;-69
2023/07/27 03:20:41;;;;;;;5.95;2.47;;;15.20;99.90;;;;;;4998894;28;20031;-69
2023/07/27 03:23:07;;;;;;;3.95;2.67;;;15.20;99.90;;;;;;4998270;28;20022;-69
2023/07/27 03:25:34;;;;;;;7.30;2.80;;;15.20;99.90;;;;;;4997873;28;20026;-69
2023/07/27 03:28:01;;;;;;;5.28;3.13;;;15.20;99.90;;;;;;4997878;28;20117;-69
2023/07/27 03:30:27;;;;;;;4.97;3.22;;;15.20;99.90;;;;;;4997765;28;20022;-69
2023/07/27 03:32:52;;;;;;;4.90;3.00;;;15.30;99.90;;;;;;4998979;28;20037;-69
2023/07/27 03:35:18;;;;;;;7.22;2.90;;;15.20;99.90;;;;;;4998892;28;20034;-69
2023/07/27 03:37:43;;;;;;;3.65;2.70;;;15.20;99.90;;;;;;4998307;28;20026;-69
2023/07/27 03:40:09;;;;;;;6.38;3.00;;;15.10;99.90;;;;;;4997655;28;20108;-69
2023/07/27 03:42:35;;;;;;;9.38;2.95;;;15.20;99.90;;;;;;4998047;28;20035;-69
2023/07/27 03:45:00;;;;;;;4.78;3.08;;;15.30;99.90;;;;;;4997495;28;20101;-69
2023/07/27 03:47:26;;;;;;;8.10;2.92;;;15.20;99.90;;;;;;4997396;28;20062;-69
2023/07/27 03:49:51;;;;;;;9.43;2.95;;;15.20;99.90;;;;;;4997547;28;20022;-69
2023/07/27 03:52:17;;;;;;;5.68;2.65;;;15.10;99.90;;;;;;4998425;28;20103;-69
2023/07/27 03:54:42;;;;;;;5.53;3.22;;;15.30;99.90;;;;;;4997729;28;20116;-69
2023/07/27 03:57:08;;;;;;;6.68;3.47;;;15.20;99.90;;;;;;4998350;28;20105;-69
2023/07/27 03:59:33;;;;;;;9.35;3.25;;;15.20;99.90;;;;;;4997334;28;20022;-69
2023/07/27 04:01:59;;;;;;;7.75;3.58;;;15.30;99.90;;;;;;4997495;28;20022;-69
2023/07/27 04:04:24;;;;;;;6.78;3.42;;;15.40;99.90;;;;;;4997833;28;20030;-69
2023/07/27 04:06:50;;;;;;;6.78;3.28;;;15.40;99.90;;;;;;4997209;28;20023;-69
2023/07/27 04:09:15;;;;;;;10.00;3.85;;;15.30;99.90;;;;;;4997181;28;20022;-69
2023/07/27 04:11:41;;;;;;;9.60;3.58;;;15.30;99.90;;;;;;4997434;28;20026;-69
2023/07/27 04:14:06;;;;;;;6.28;3.55;;;15.30;99.90;;;;;;4997417;28;20065;-69
2023/07/27 04:16:32;;;;;;;7.80;3.60;;;15.20;99.90;;;;;;4997897;28;20027;-69
2023/07/27 04:18:57;;;;;;;6.97;3.58;;;15.20;99.90;;;;;;4997106;28;20022;-69
2023/07/27 04:21:23;;;;;;;9.38;4.00;;;15.20;99.90;;;;;;4997160;28;20030;-69
2023/07/27 04:23:49;;;;;;;7.43;4.00;;;15.30;99.90;;;;;;4996872;28;20034;-69
2023/07/27 04:26:14;;;;;;;5.93;3.95;;;15.30;99.90;;;;;;4996976;28;20058;-69
2023/07/27 04:28:40;;;;;;;7.53;4.07;;;15.40;99.90;;;;;;4996762;28;20054;-69
2023/07/27 04:31:05;;;;;;;9.65;3.40;;;15.40;99.90;;;;;;4996852;28;20026;-69
2023/07/27 04:33:31;;;;;;;9.05;3.40;;;15.40;99.90;;;;;;4996872;28;20018;-69
2023/07/27 04:35:59;;;;;;;6.18;3.53;;;15.40;99.90;;;;;;4996839;28;20034;-69
2023/07/27 04:38:25;;;;;;;6.78;3.95;;;15.40;99.90;;;;;;4996702;28;20034;-69
2023/07/27 04:40:51;;;;;;;8.27;4.05;;;15.30;99.90;;;;;;4996847;28;20023;-69
2023/07/27 04:43:17;;;;;;;11.90;3.88;;;15.30;99.90;;;;;;4996641;28;20089;-69
2023/07/27 04:45:43;;;;;;;6.95;3.42;;;15.40;99.90;;;;;;4997524;28;20053;-69
2023/07/27 04:48:08;;;;;;;6.20;4.20;;;15.30;99.90;;;;;;4996728;28;20027;-69
2023/07/27 04:50:35;;;;;;;5.63;3.72;;;15.40;99.90;;;;;;4996459;28;20027;-69
2023/07/27 04:53:01;;;;;;;8.77;4.00;;;15.40;99.90;;;;;;4997061;28;20118;-69
2023/07/27 04:55:26;;;;;;;14.60;4.68;;;15.50;99.90;;;;;;4996524;28;20054;-69
2023/07/27 04:57:52;;;;;;;7.78;4.25;;;15.50;99.90;;;;;;4997401;28;20050;-69
2023/07/27 05:00:18;;;;;;;9.82;3.88;;;15.30;99.90;;;;;;4996742;28;20029;-69
2023/07/27 05:02:43;;;;;;;7.63;3.83;;;15.30;99.90;;;;;;4996448;28;20035;-69
2023/07/27 05:05:09;;;;;;;8.25;4.75;;;15.30;99.90;;;;;;4996467;28;20109;-69
2023/07/27 05:07:34;;;;;;;6.60;3.90;;;15.20;99.90;;;;;;4997097;28;20027;-69
2023/07/27 05:10:00;;;;;;;10.43;4.68;;;15.20;99.90;;;;;;4997206;28;20030;-69
2023/07/27 05:12:27;;;;;;;7.95;3.88;;;15.20;99.90;;;;;;5019309;23;20038;-78
2023/07/27 05:14:53;;;;;;;6.78;4.13;;;15.20;99.90;;;;;;4978119;28;20050;-78
2023/07/27 05:17:18;;;;;;;8.30;3.75;;;15.10;99.90;;;;;;4977248;28;20023;-78
2023/07/27 05:19:44;;;;;;;10.57;4.32;;;15.10;99.90;;;;;;4993036;28;20030;-78
2023/07/27 05:22:10;;;;;;;6.88;4.10;;;15.00;99.90;;;;;;4976813;28;20162;-78
2023/07/27 05:24:35;;;;;;;8.98;4.93;;;15.20;99.90;;;;;;4976926;28;20027;-77
2023/07/27 05:27:01;;;;;;;6.25;4.07;;;15.20;99.90;;;;;;4992747;28;20023;-71
2023/07/27 05:29:26;;;;;;;7.05;3.75;;;15.10;99.90;;;;;;4976879;28;20118;-71
2023/07/27 05:31:52;;;;;;;10.60;4.70;;;15.10;99.90;;;;;;4978476;28;20023;-71
2023/07/27 05:34:17;;;;;;;6.20;4.43;;;15.20;99.90;;;;;;4980400;28;20015;-71
2023/07/27 05:36:43;;;;;;;9.07;4.72;;;15.20;99.90;;;;;;4980720;28;20030;-71
2023/07/27 05:39:09;;;;;;;7.57;4.38;;;15.20;99.90;;;;;;4981250;28;20073;-68
2023/07/27 05:41:34;;;;;;;7.57;4.90;;;15.10;99.90;;;;;;4980207;28;20019;-68
2023/07/27 05:44:00;;;;;;;9.27;4.60;;;15.10;99.90;;;;;;4980378;28;20027;-67
2023/07/27 05:46:25;;;;;;;8.10;4.55;;;15.10;99.90;;;;;;4980110;28;20050;-68
2023/07/27 05:48:51;;;;;;;8.52;4.93;;;15.00;99.90;;;;;;4980210;28;20019;-67
2023/07/27 05:51:16;;;;;;;8.88;4.85;;;15.00;99.90;;;;;;4980510;28;20061;-67
2023/07/27 05:53:44;;;;;;;11.82;4.65;;;15.00;99.90;;;;;;4980517;28;20118;-67
2023/07/27 05:56:10;;;;;;;11.43;4.80;;;15.00;99.90;;;;;;4980489;28;20031;-67
2023/07/27 05:58:35;;;;;;;9.32;4.35;;;15.00;99.90;;;;;;4980390;28;20058;-67
2023/07/27 06:01:03;;;;;;;6.65;4.25;;;15.10;99.90;;;;;;4980357;28;20031;-67
2023/07/27 06:03:29;;;;;;;9.02;4.72;;;15.10;99.90;;;;;;4980177;28;20033;-67
2023/07/27 06:05:55;;;;;;;8.38;4.63;;;15.00;99.90;;;;;;4980560;28;20027;-68
2023/07/27 06:08:21;;;;;;;8.57;4.22;;;15.10;99.90;;;;;;4980565;28;20025;-67
2023/07/27 06:10:47;;;;;;;6.97;4.40;;;15.10;99.90;;;;;;4980146;28;20027;-67
2023/07/27 06:13:12;;;;;;;6.25;4.18;;;15.10;99.90;;;;;;4979613;28;20031;-68
2023/07/27 06:15:38;;;;;;;8.13;4.45;;;15.10;99.90;;;;;;4979752;28;20081;-67
2023/07/27 06:18:04;;;;;;;14.40;5.28;;;15.20;99.90;;;;;;4979916;28;20029;-67
2023/07/27 06:20:29;;;;;;;8.48;4.68;;;15.10;99.90;;;;;;4979925;28;20015;-67
2023/07/27 06:22:55;;;;;;;8.88;4.88;;;15.10;99.90;;;;;;4980192;28;20023;-67
2023/07/27 06:25:20;;;;;;;9.45;4.57;;;15.00;99.90;;;;;;4979651;28;20053;-67
2023/07/27 06:27:46;;;;;;;11.88;4.72;;;15.10;99.90;;;;;;4979475;28;20039;-67
2023/07/27 06:30:12;;;;;;;6.43;4.70;;;15.10;99.90;;;;;;4979454;28;20074;-67
2023/07/27 06:32:38;;;;;;;6.55;3.47;;;15.10;99.90;;;;;;4980056;28;20034;-69
2023/07/27 06:35:04;;;;;;;10.68;5.28;;;15.30;99.90;;;;;;4980013;28;20027;-69
2023/07/27 06:37:29;;;;;;;8.68;3.80;;;15.30;99.90;;;;;;4979314;28;20110;-69
2023/07/27 06:39:55;;;;;;;8.20;3.88;;;15.50;99.90;;;;;;4980354;28;20041;-71
2023/07/27 06:42:20;;;;;;;8.50;4.25;;;15.40;99.90;;;;;;4979096;28;20042;-71
2023/07/27 06:44:46;;;;;;;9.38;4.45;;;15.30;99.90;;;;;;4979361;28;20030;-71
2023/07/27 06:47:12;;;;;;;11.93;5.22;;;15.40;99.90;;;;;;4979062;28;20037;-71
2023/07/27 06:49:37;;;;;;;6.55;4.18;;;15.60;99.90;;;;;;4979171;28;20043;-71
2023/07/27 06:52:03;;;;;;;11.07;5.97;;;15.60;99.90;;;;;;4979102;28;20019;-71
2023/07/27 06:54:29;;;;;;;10.80;5.28;;;15.50;99.90;;;;;;4979325;28;20023;-71
2023/07/27 06:56:54;;;;;;;9.32;5.95;;;15.50;99.90;;;;;;4979510;28;20023;-71
2023/07/27 06:59:20;;;;;;;8.30;5.32;;;15.40;99.90;;;;;;4979941;28;20030;-71
2023/07/27 07:01:46;;;;;;;12.48;5.95;;;15.50;99.90;;;;;;4979347;28;20051;-71
2023/07/27 07:04:11;;;;;;;10.02;6.28;;;15.40;99.90;;;;;;4979149;28;20031;-71
2023/07/27 07:06:37;;;;;;;9.95;6.53;;;15.40;99.90;;;;;;4979032;28;20027;-71
2023/07/27 07:09:02;;;;;;;9.82;5.43;;;15.20;99.90;;;;;;4978863;28;20023;-71
2023/07/27 07:11:28;;;;;;;9.73;5.70;;;15.20;99.90;;;;;;4979251;28;20029;-70
2023/07/27 07:13:53;;;;;;;9.15;5.95;;;15.30;99.90;;;;;;4978558;28;20038;-70
2023/07/27 07:16:19;;;;;;;12.35;5.85;;;15.30;99.90;;;;;;4979395;28;20030;-70
2023/07/27 07:18:44;;;;;;;9.25;5.63;;;15.30;99.90;;;;;;4979199;28;20027;-70
2023/07/27 07:21:10;;;;;;;13.93;5.95;;;15.30;99.90;;;;;;4978768;28;20029;-70
2023/07/27 07:23:35;;;;;;;12.35;6.07;;;15.30;99.90;;;;;;4978881;28;20118;-70
2023/07/27 07:26:01;;;;;;;9.23;5.28;;;15.40;99.90;;;;;;4978990;28;20042;-70
2023/07/27 07:28:27;;;;;;;8.60;5.32;;;15.40;99.90;;;;;;4978891;28;20034;-70
2023/07/27 07:30:52;;;;;;;14.82;6.53;;;15.30;99.90;;;;;;4978510;28;20058;-70
2023/07/27 07:33:18;;;;;;;13.93;5.75;;;15.30;99.90;;;;;;4979130;28;20050;-70
2023/07/27 07:35:43;;;;;;;10.07;5.63;;;15.30;99.90;;;;;;4979281;28;20110;-70
2023/07/27 07:38:09;;;;;;;12.60;6.15;;;15.20;99.90;;;;;;4978561;28;20029;-70
2023/07/27 07:40:34;;;;;;;14.57;6.28;;;15.20;99.90;;;;;;4978578;28;20048;-70
2023/07/27 07:43:00;;;;;;;10.30;6.65;;;15.10;99.90;;;;;;4978287;28;20025;-70
2023/07/27 07:45:26;;;;;;;10.95;6.95;;;15.10;99.90;;;;;;4978431;28;20026;-70
2023/07/27 07:47:51;;;;;;;12.07;7.32;;;15.20;99.90;;;;;;4978200;28;20027;-70
2023/07/27 07:50:17;;;;;;;12.25;7.35;;;15.10;99.90;;;;;;4979026;28;20072;-67
2023/07/27 07:52:42;;;;;;;13.27;7.70;;;14.90;99.90;;;;;;4978424;28;20022;-77
2023/07/27 07:55:08;;;;;;;14.52;8.07;;;15.00;99.90;;;;;;4978232;28;20098;-78
2023/07/27 07:57:34;;;;;;;11.88;7.38;;;15.10;99.90;;;;;;4978529;28;20050;-77
2023/07/27 07:59:59;;;;;;;13.63;7.82;;;14.90;99.90;;;;;;4978289;28;20037;-78
2023/07/27 08:02:25;;;;;;;16.85;7.95;;;15.10;99.90;;;;;;4978042;28;20050;-77
2023/07/27 08:04:51;;;;;;;14.55;7.55;;;15.10;99.90;;;;;;4978836;28;20090;-77
2023/07/27 08:07:16;;;;;;;14.05;7.93;;;15.10;99.90;;;;;;4977943;28;20031;-78
2023/07/27 08:09:42;;;;;;;12.07;6.88;;;15.20;99.90;;;;;;4978353;28;20026;-78
2023/07/27 08:12:07;;;;;;;9.75;7.05;;;15.30;99.90;;;;;;4978571;28;20037;-78
2023/07/27 08:14:33;;;;;;;12.23;7.80;;;15.10;99.90;;;;;;4977938;28;20031;-78
2023/07/27 08:16:58;;;;;;;15.75;8.70;;;15.10;99.90;;;;;;4978025;28;20061;-78
2023/07/27 08:19:25;;;;;;;14.30;7.28;;;15.10;99.90;;;;;;4977917;28;20027;-79
2023/07/27 08:21:51;;;;;;;11.73;7.35;;;15.10;99.90;;;;;;4977544;28;20031;-79
2023/07/27 08:24:16;;;;;;;15.48;9.02;;;15.00;99.90;;;;;;4977446;28;20030;-79
2023/07/27 08:26:42;;;;;;;17.27;8.55;;;15.10;99.90;;;;;;4978224;28;20105;-79
2023/07/27 08:29:07;;;;;;;12.35;8.02;;;15.10;99.90;;;;;;4977689;28;20119;-79
2023/07/27 08:31:33;;;;;;;15.65;9.05;;;15.10;99.90;;;;;;4977206;28;20078;-79
2023/07/27 08:33:58;;;;;;;14.20;8.13;;;15.20;99.90;;;;;;4977421;28;20070;-80
2023/07/27 08:36:24;;;;;;;12.05;7.97;;;15.20;99.90;;;;;;4978219;28;20030;-80
2023/07/27 08:38:50;;;;;;;13.98;8.07;;;15.10;99.90;;;;;;4978146;28;20050;-80
2023/07/27 08:41:15;;;;;;;11.30;7.60;;;15.10;99.90;;;;;;4977674;28;20030;-80
2023/07/27 08:43:41;;;;;;;14.38;8.40;;;15.20;99.90;;;;;;4977450;28;20033;-79
2023/07/27 08:46:08;;;;;;;12.02;7.85;;;15.20;99.90;;;;;;4977568;28;20122;-80
2023/07/27 08:48:34;;;;;;;10.65;7.97;;;15.30;99.90;;;;;;4977386;28;20030;-80
2023/07/27 08:51:00;;;;;;;12.73;8.20;;;15.30;99.90;;;;;;4977280;28;20117;-80
2023/07/27 08:53:26;;;;;;;10.95;7.38;;;15.30;99.90;;;;;;4977413;28;20027;-80
2023/07/27 08:55:52;;;;;;;12.68;7.97;;;15.30;99.90;;;;;;4977413;28;20027;-81
2023/07/27 08:58:18;;;;;;;11.05;7.70;;;15.30;99.90;;;;;;4977200;28;20038;-81
2023/07/27 09:00:43;;;;;;;11.25;7.25;;;15.40;99.90;;;;;;4977274;28;20026;-80
2023/07/27 09:03:09;;;;;;;10.68;7.07;;;15.40;99.90;;;;;;4977741;28;20030;-80
2023/07/27 09:05:42;;;;;;;9.13;5.95;;;15.40;99.90;;;;;;4979032;28;20027;-81
2023/07/27 09:08:10;;;;;;;13.63;6.93;;;15.50;99.90;;;;;;4981817;28;20089;-80
2023/07/27 09:10:37;;;;;;;8.60;6.05;;;15.50;99.90;;;;;;4981327;28;20030;-80
2023/07/27 09:13:03;;;;;;;7.25;5.22;;;15.60;99.90;;;;;;4980985;28;20037;-80
2023/07/27 09:15:29;;;;;;;5.38;4.10;;;15.60;99.90;;;;;;4982089;28;20030;-79
2023/07/27 09:17:58;;;;;;;7.68;4.30;;;15.60;99.90;;;;;;4981431;28;20027;-72
2023/07/27 09:20:25;;;;;;;7.10;4.20;;;15.60;99.90;;;;;;4981584;28;20066;-71
2023/07/27 09:22:50;;;;;;;5.85;4.45;;;15.50;99.90;;;;;;4980814;28;20031;-72
2023/07/27 09:25:22;;;;;;;5.70;4.07;;;15.60;99.90;;;;;;4981081;28;20033;-72
2023/07/27 09:27:50;;;;;;;8.57;4.35;;;15.50;99.90;;;;;;4981353;28;20031;-72
2023/07/27 09:30:16;;;;;;;9.05;4.82;;;15.60;99.90;;;;;;4980659;28;20038;-73
2023/07/27 09:32:42;;;;;;;6.28;4.78;;;15.50;99.90;;;;;;4980433;28;20030;-72
2023/07/27 09:35:15;;;;;;;5.50;3.88;;;15.50;99.90;;;;;;4980816;28;20019;-72
2023/07/27 09:37:43;;;;;;;8.73;3.58;;;15.60;99.90;;;;;;4980988;28;20027;-72
2023/07/27 09:40:22;;;;;;;5.60;4.05;;;15.60;99.90;;;;;;4980878;28;20031;-72
2023/07/27 09:42:48;;;;;;;8.43;5.15;;;15.70;99.90;;;;;;4981007;28;20038;-72
2023/07/27 09:45:14;;;;;;;4.57;4.13;;;15.70;99.90;;;;;;4981101;28;20034;-72
2023/07/27 09:47:40;;;;;;;6.22;3.28;;;15.70;99.90;;;;;;4980199;28;20050;-71
2023/07/27 09:50:09;;;;;;;5.10;3.85;;;15.80;99.90;;;;;;4980461;28;20117;-72
2023/07/27 09:52:36;;;;;;;3.95;3.50;;;15.70;99.90;;;;;;4980826;28;20030;-71
2023/07/27 09:55:02;;;;;;;3.97;3.28;;;15.80;99.90;;;;;;4980199;28;20074;-71
2023/07/27 09:57:29;;;;;;;3.70;2.80;;;15.90;99.90;;;;;;4980385;28;20031;-72
2023/07/27 09:59:54;;;;;;;4.30;2.78;;;15.90;99.90;;;;;;4980286;28;20030;-72
2023/07/27 10:02:21;;;;;;;3.08;2.67;;;16.00;99.90;;;;;;4980278;28;20038;-72
2023/07/27 10:04:50;;;;;;;4.07;2.50;;;16.00;99.90;;;;;;4980918;28;20142;-71
2023/07/27 10:07:20;;;;;;;3.65;2.80;;;15.90;99.90;;;;;;4979821;28;20054;-72
2023/07/27 10:09:47;;;;;;;3.30;2.50;;;16.00;99.90;;;;;;4980614;28;20057;-72
2023/07/27 10:12:29;;;;;;;3.47;2.10;;;16.10;99.90;;;;;;4980242;28;20054;-71
2023/07/27 10:15:27;;;;;;;2.53;2.20;;;16.20;99.90;;;;;;4980623;28;20099;-71
2023/07/27 10:17:57;;;;;;;2.20;1.50;;;16.30;99.90;;;;;;4979950;28;20089;-71
2023/07/27 10:20:30;;;;;;;2.67;1.90;;;16.30;99.90;;;;;;4980649;28;20030;-71
2023/07/27 10:23:28;;;;;;;2.78;2.17;;;16.20;99.90;;;;;;4980606;28;20026;-71
2023/07/27 10:25:56;;;;;;;3.22;2.72;;;16.30;99.90;;;;;;4979377;28;20042;-71
2023/07/27 10:28:29;;;;;;;5.55;2.45;;;16.30;99.90;;;;;;4980654;28;20083;-71
2023/07/27 10:31:13;;;;;;;2.80;2.47;;;16.30;99.90;;;;;;4979553;28;20022;-71
2023/07/27 10:33:46;;;;;;;4.07;2.78;;;16.20;99.90;;;;;;4980428;28;20054;-71
2023/07/27 10:36:12;;;;;;;4.63;3.50;;;16.20;99.90;;;;;;4980365;28;20031;-71
2023/07/27 10:38:38;;;;;;;6.63;3.85;;;16.20;99.90;;;;;;4979300;28;20031;-70
2023/07/27 10:41:14;;;;;;;9.60;4.28;;;16.20;99.90;;;;;;4979902;28;20027;-70
2023/07/27 10:44:09;;;;;;;4.70;3.85;;;16.30;99.90;;;;;;4979779;28;20049;-70
2023/07/27 10:46:38;;;;;;;9.43;4.05;;;16.30;99.90;;;;;;4979135;28;20023;-70
2023/07/27 10:49:11;;;;;;;7.25;4.15;;;16.30;99.90;;;;;;4979554;28;20027;-70
2023/07/27 10:51:38;;;;;;;7.88;5.00;;;16.30;99.90;;;;;;4980066;28;20054;-70
2023/07/27 10:54:04;;;;;;;9.07;4.75;;;16.30;99.90;;;;;;4980186;28;20031;-70
2023/07/27 10:56:31;;;;;;;10.65;6.05;;;16.30;99.90;;;;;;4979930;28;20023;-70
2023/07/27 10:59:00;;;;;;;8.15;5.00;;;16.30;99.90;;;;;;4979944;28;20062;-70
2023/07/27 11:01:32;;;;;;;6.65;4.88;;;16.40;99.90;;;;;;4979911;28;20022;-70
2023/07/27 11:03:58;;;;;;;7.50;3.88;;;16.30;99.90;;;;;;4995333;28;20121;-71
2023/07/27 11:06:27;;;;;;;9.90;4.30;;;16.30;99.90;;;;;;4979621;28;20105;-70
2023/07/27 11:08:53;;;;;;;9.13;5.03;;;16.40;99.90;;;;;;4979504;28;20043;-70
2023/07/27 11:11:20;;;;;;;10.07;5.78;;;16.40;99.90;;;;;;4978815;28;20034;-70
2023/07/27 11:13:46;;;;;;;9.25;5.53;;;16.40;99.90;;;;;;4980200;28;20062;-70
2023/07/27 11:16:13;;;;;;;7.03;5.25;;;16.40;99.90;;;;;;4979806;28;20085;-70
2023/07/27 11:18:40;;;;;;;10.32;6.00;;;16.30;99.90;;;;;;4979369;28;20082;-70
2023/07/27 11:21:11;;;;;;;19.48;9.48;;;16.30;99.90;;;;;;4979977;28;20148;-71
2023/07/27 11:23:45;;;;;;;12.00;8.90;;;16.20;99.90;;;;;;4978549;28;20046;-70
2023/07/27 11:26:11;;;;;;;19.33;11.00;;;16.10;99.90;;;;;;4978816;28;20290;-70
2023/07/27 11:28:38;;;;;;;16.92;10.57;;;16.00;99.90;;;;;;4978846;28;20101;-70
2023/07/27 11:31:07;;;;;;;12.75;8.93;;;16.00;99.90;;;;;;4979144;28;20030;-70
2023/07/27 11:33:34;;;;;;;15.27;9.93;;;16.10;99.90;;;;;;4979441;28;20037;-70
2023/07/27 11:36:00;;;;;;;13.55;8.30;;;16.10;99.90;;;;;;4978402;28;20034;-71
2023/07/27 11:38:27;;;;;;;15.40;10.38;;;16.10;99.90;;;;;;4979238;28;20027;-70
2023/07/27 11:40:55;;;;;;;13.45;8.73;;;16.10;99.90;;;;;;4978314;28;20118;-70
2023/07/27 11:43:20;;;;;;;15.13;9.57;;;16.10;99.90;;;;;;4994261;28;20098;-70
2023/07/27 11:45:47;;;;;;;13.38;8.25;;;16.10;99.90;;;;;;4978004;28;20066;-78
2023/07/27 11:48:13;;;;;;;12.73;8.00;;;16.10;99.90;;;;;;4979301;28;20015;-77
2023/07/27 11:50:39;;;;;;;11.40;8.75;;;16.10;99.90;;;;;;4978061;28;20061;-77
2023/07/27 11:53:09;;;;;;;15.50;9.60;;;16.20;99.90;;;;;;4977999;28;20138;-77
2023/07/27 11:55:36;;;;;;;12.02;8.50;;;16.30;99.90;;;;;;4978833;28;20042;-77
2023/07/27 11:58:09;;;;;;;11.68;8.55;;;16.30;99.90;;;;;;4978697;28;20073;-77
2023/07/27 12:00:36;;;;;;;10.65;8.10;;;16.30;99.90;;;;;;4994523;28;20050;-77
2023/07/27 12:03:03;;;;;;;11.50;7.63;;;16.40;99.90;;;;;;4978508;28;20023;-77
2023/07/27 12:05:31;;;;;;;11.68;8.40;;;16.50;99.90;;;;;;4977883;28;20061;-78
2023/07/27 12:07:57;;;;;;;9.93;7.50;;;16.50;99.90;;;;;;4994803;28;20027;-78
2023/07/27 12:10:23;;;;;;;13.65;6.97;;;16.60;99.90;;;;;;4977634;28;20026;-77
2023/07/27 12:12:59;;;;;;;11.50;7.50;;;16.70;99.90;;;;;;4978250;28;20166;-78
2023/07/27 12:15:30;;;;;;;8.73;6.30;;;16.60;99.90;;;;;;4977895;28;20018;-77
2023/07/27 12:18:01;;;;;;;11.60;6.07;;;16.70;99.90;;;;;;4977695;28;20027;-77
2023/07/27 12:20:28;;;;;;;8.55;6.07;;;16.70;99.90;;;;;;4978668;28;20038;-77
2023/07/27 12:22:53;;;;;;;6.28;4.97;;;16.70;99.90;;;;;;4978433;28;20105;-70
2023/07/27 12:25:19;;;;;;;7.35;4.95;;;16.80;99.90;;;;;;4978497;28;20031;-70
2023/07/27 12:27:45;;;;;;;7.75;5.13;;;16.80;99.90;;;;;;4977680;28;20027;-70
2023/07/27 12:30:11;;;;;;;10.27;6.57;;;16.90;99.90;;;;;;4993614;28;20062;-70
2023/07/27 12:32:37;;;;;;;13.45;6.72;;;16.80;99.90;;;;;;4978204;28;20058;-70
2023/07/27 12:35:04;;;;;;;8.32;5.90;;;16.70;99.90;;;;;;4993728;28;20023;-70
2023/07/27 12:37:33;;;;;;;7.00;5.53;;;16.80;99.90;;;;;;4977382;28;20130;-70
2023/07/27 12:39:58;;;;;;;11.73;7.18;;;16.90;99.90;;;;;;4976978;28;20041;-70
2023/07/27 12:42:24;;;;;;;13.05;7.53;;;16.90;99.90;;;;;;4978543;28;20117;-70